sensor_id;sensor_type;location;lat;lon;timestamp;temperature;humidity
6627;DHT22;3349;49.830;8.748;2022-10-03T00:02:13;10.60;99.90
6627;DHT22;3349;49.830;8.748;2022-10-03T00:04:58;10.50;99.90
6627;DHT22;3349;49.830;8.748;2022-10-03T00:07:40;10.30;99.90
6627;DHT22;3349;49.830;8.748;2022-10-03T00:10:23;10.20;99.90
6627;DHT22;3349;49.830;8.748;2022-10-03T00:13:16;10.20;99.90
6627;DHT22;3349;49.830;8.748;2022-10-03T00:15:49;10.30;99.90
6627;DHT22;3349;49.830;8.748;2022-10-03T00:18:27;10.20;99.90
6627;DHT22;3349;49.830;8.748;2022-10-03T00:21:13;10.20;99.90
6627;DHT22;3349;49.830;8.748;2022-10-03T00:23:49;10.10;99.90
6627;DHT22;3349;49.830;8.748;2022-10-03T00:26:23;10.00;99.90
6627;DHT22;3349;49.830;8.748;2022-10-03T00:29:12;9.90;99.90
6627;DHT22;3349;49.830;8.748;2022-10-03T00:31:45;10.00;99.90
6627;DHT22;3349;49.830;8.748;2022-10-03T00:34:26;9.90;99.90
6627;DHT22;3349;49.830;8.748;2022-10-03T00:37:08;9.90;99.90
6627;DHT22;3349;49.830;8.748;2022-10-03T00:39:46;9.70;99.90
6627;DHT22;3349;49.830;8.748;2022-10-03T00:51:43;9.70;99.90
6627;DHT22;3349;49.830;8.748;2022-10-03T00:54:38;9.70;99.90
6627;DHT22;3349;49.830;8.748;2022-10-03T01:00:14;9.60;99.90
6627;DHT22;3349;49.830;8.748;2022-10-03T01:03:00;9.60;99.90
6627;DHT22;3349;49.830;8.748;2022-10-03T01:05:42;9.50;99.90
6627;DHT22;3349;49.830;8.748;2022-10-03T01:11:39;9.50;99.90
6627;DHT22;3349;49.830;8.748;2022-10-03T01:14:17;9.50;99.90
6627;DHT22;3349;49.830;8.748;2022-10-03T01:17:04;9.50;99.90
6627;DHT22;3349;49.830;8.748;2022-10-03T01:19:47;9.50;99.90
6627;DHT22;3349;49.830;8.748;2022-10-03T01:22:39;9.40;99.90
6627;DHT22;3349;49.830;8.748;2022-10-03T01:25:11;9.40;99.90
6627;DHT22;3349;49.830;8.748;2022-10-03T01:27:48;9.40;99.90
6627;DHT22;3349;49.830;8.748;2022-10-03T01:30:40;9.50;99.90
6627;DHT22;3349;49.830;8.748;2022-10-03T01:33:10;9.50;99.90
6627;DHT22;3349;49.830;8.748;2022-10-03T01:35:49;9.50;99.90
6627;DHT22;3349;49.830;8.748;2022-10-03T01:38:24;9.40;99.90
6627;DHT22;3349;49.830;8.748;2022-10-03T01:40:57;9.30;99.90
6627;DHT22;3349;49.830;8.748;2022-10-03T01:43:32;9.20;99.90
6627;DHT22;3349;49.830;8.748;2022-10-03T01:46:10;9.20;99.90
6627;DHT22;3349;49.830;8.748;2022-10-03T01:48:49;9.10;99.90
6627;DHT22;3349;49.830;8.748;2022-10-03T01:51:22;9.10;99.90
6627;DHT22;3349;49.830;8.748;2022-10-03T01:54:02;9.10;99.90
6627;DHT22;3349;49.830;8.748;2022-10-03T01:56:34;9.00;99.90
6627;DHT22;3349;49.830;8.748;2022-10-03T01:59:07;8.90;99.90
6627;DHT22;3349;49.830;8.748;2022-10-03T02:01:47;8.90;99.90
6627;DHT22;3349;49.830;8.748;2022-10-03T02:04:23;8.90;99.90
6627;DHT22;3349;49.830;8.748;2022-10-03T02:07:01;8.80;99.90
6627;DHT22;3349;49.830;8.748;2022-10-03T02:09:35;8.80;99.90
6627;DHT22;3349;49.830;8.748;2022-10-03T02:12:08;8.70;99.90
6627;DHT22;3349;49.830;8.748;2022-10-03T02:14:52;8.70;99.90
6627;DHT22;3349;49.830;8.748;2022-10-03T02:17:34;8.60;99.90
6627;DHT22;3349;49.830;8.748;2022-10-03T02:20:13;8.60;99.90
6627;DHT22;3349;49.830;8.748;2022-10-03T02:22:49;8.60;99.90
6627;DHT22;3349;49.830;8.748;2022-10-03T02:25:35;8.50;99.90
6627;DHT22;3349;49.830;8.748;2022-10-03T02:28:27;8.50;99.90
6627;DHT22;3349;49.830;8.748;2022-10-03T02:31:14;8.50;99.90
6627;DHT22;3349;49.830;8.748;2022-10-03T02:37:33;8.50;99.90
6627;DHT22;3349;49.830;8.748;2022-10-03T02:40:45;8.50;99.90
6627;DHT22;3349;49.830;8.748;2022-10-03T02:49:48;8.50;99.90
6627;DHT22;3349;49.830;8.748;2022-10-03T02:52:44;8.40;99.90
6627;DHT22;3349;49.830;8.748;2022-10-03T02:58:50;8.40;99.90
6627;DHT22;3349;49.830;8.748;2022-10-03T03:01:58;8.30;99.90
6627;DHT22;3349;49.830;8.748;2022-10-03T03:04:55;8.30;99.90
6627;DHT22;3349;49.830;8.748;2022-10-03T03:07:37;8.30;99.90
6627;DHT22;3349;49.830;8.748;2022-10-03T03:10:30;8.20;99.90
6627;DHT22;3349;49.830;8.748;2022-10-03T03:13:28;8.20;99.90
6627;DHT22;3349;49.830;8.748;2022-10-03T03:16:16;8.10;99.90
6627;DHT22;3349;49.830;8.748;2022-10-03T03:19:08;8.10;99.90
6627;DHT22;3349;49.830;8.748;2022-10-03T03:21:43;8.00;99.90
6627;DHT22;3349;49.830;8.748;2022-10-03T03:24:25;8.00;99.90
6627;DHT22;3349;49.830;8.748;2022-10-03T03:27:24;8.00;99.90
6627;DHT22;3349;49.830;8.748;2022-10-03T03:30:00;7.90;99.90
6627;DHT22;3349;49.830;8.748;2022-10-03T03:32:37;7.90;99.90
6627;DHT22;3349;49.830;8.748;2022-10-03T03:35:13;7.90;99.90
6627;DHT22;3349;49.830;8.748;2022-10-03T03:37:53;7.90;99.90
6627;DHT22;3349;49.830;8.748;2022-10-03T03:40:34;8.00;99.90
6627;DHT22;3349;49.830;8.748;2022-10-03T03:43:17;8.10;99.90
6627;DHT22;3349;49.830;8.748;2022-10-03T03:45:57;8.20;99.90
6627;DHT22;3349;49.830;8.748;2022-10-03T03:48:59;8.10;99.90
6627;DHT22;3349;49.830;8.748;2022-10-03T03:51:36;8.10;99.90
6627;DHT22;3349;49.830;8.748;2022-10-03T03:57:23;8.20;99.90
6627;DHT22;3349;49.830;8.748;2022-10-03T04:00:13;8.10;99.90
6627;DHT22;3349;49.830;8.748;2022-10-03T04:03:03;8.10;99.90
6627;DHT22;3349;49.830;8.748;2022-10-03T04:05:43;8.10;99.90
6627;DHT22;3349;49.830;8.748;2022-10-03T04:08:31;8.10;99.90
6627;DHT22;3349;49.830;8.748;2022-10-03T04:11:14;8.10;99.90
6627;DHT22;3349;49.830;8.748;2022-10-03T04:16:58;8.00;99.90
6627;DHT22;3349;49.830;8.748;2022-10-03T04:20:01;8.00;99.90
6627;DHT22;3349;49.830;8.748;2022-10-03T04:22:51;8.00;99.90
6627;DHT22;3349;49.830;8.748;2022-10-03T04:25:34;7.90;99.90
6627;DHT22;3349;49.830;8.748;2022-10-03T04:28:18;7.90;99.90
6627;DHT22;3349;49.830;8.748;2022-10-03T04:31:08;7.80;99.90
6627;DHT22;3349;49.830;8.748;2022-10-03T04:34:07;7.80;99.90
6627;DHT22;3349;49.830;8.748;2022-10-03T04:37:00;7.70;99.90
6627;DHT22;3349;49.830;8.748;2022-10-03T04:39:36;7.70;99.90
6627;DHT22;3349;49.830;8.748;2022-10-03T04:42:11;7.60;99.90
6627;DHT22;3349;49.830;8.748;2022-10-03T04:44:49;7.60;99.90
6627;DHT22;3349;49.830;8.748;2022-10-03T04:47:22;7.60;99.90
6627;DHT22;3349;49.830;8.748;2022-10-03T04:49:57;7.60;99.90
6627;DHT22;3349;49.830;8.748;2022-10-03T04:52:32;7.60;99.90
6627;DHT22;3349;49.830;8.748;2022-10-03T04:55:16;7.60;99.90
6627;DHT22;3349;49.830;8.748;2022-10-03T04:57:50;7.60;99.90
6627;DHT22;3349;49.830;8.748;2022-10-03T05:00:22;7.50;99.90
6627;DHT22;3349;49.830;8.748;2022-10-03T05:02:57;7.50;99.90
6627;DHT22;3349;49.830;8.748;2022-10-03T05:05:45;7.50;99.90
6627;DHT22;3349;49.830;8.748;2022-10-03T05:08:19;7.60;99.90
6627;DHT22;3349;49.830;8.748;2022-10-03T05:11:00;7.60;99.90
6627;DHT22;3349;49.830;8.748;2022-10-03T05:13:47;7.60;99.90
6627;DHT22;3349;49.830;8.748;2022-10-03T05:16:18;7.70;99.90
6627;DHT22;3349;49.830;8.748;2022-10-03T05:18:51;7.70;99.90
6627;DHT22;3349;49.830;8.748;2022-10-03T05:21:30;7.70;99.90
6627;DHT22;3349;49.830;8.748;2022-10-03T05:24:01;7.60;99.90
6627;DHT22;3349;49.830;8.748;2022-10-03T05:26:42;7.50;99.90
6627;DHT22;3349;49.830;8.748;2022-10-03T05:29:16;7.60;99.90
6627;DHT22;3349;49.830;8.748;2022-10-03T05:31:51;7.50;99.90
6627;DHT22;3349;49.830;8.748;2022-10-03T05:34:31;7.60;99.90
6627;DHT22;3349;49.830;8.748;2022-10-03T05:37:16;7.60;99.90
6627;DHT22;3349;49.830;8.748;2022-10-03T05:39:54;7.60;99.90
6627;DHT22;3349;49.830;8.748;2022-10-03T05:42:36;7.60;99.90
6627;DHT22;3349;49.830;8.748;2022-10-03T05:45:13;7.70;99.90
6627;DHT22;3349;49.830;8.748;2022-10-03T05:47:49;7.70;99.90
6627;DHT22;3349;49.830;8.748;2022-10-03T05:50:48;7.70;99.90
6627;DHT22;3349;49.830;8.748;2022-10-03T05:53:41;7.70;99.90
6627;DHT22;3349;49.830;8.748;2022-10-03T05:56:20;7.80;99.90
6627;DHT22;3349;49.830;8.748;2022-10-03T05:59:21;7.90;99.90
6627;DHT22;3349;49.830;8.748;2022-10-03T06:02:27;8.00;99.90
6627;DHT22;3349;49.830;8.748;2022-10-03T06:05:28;8.20;99.90
6627;DHT22;3349;49.830;8.748;2022-10-03T06:11:02;8.40;99.90
6627;DHT22;3349;49.830;8.748;2022-10-03T06:13:44;8.60;99.90
6627;DHT22;3349;49.830;8.748;2022-10-03T06:16:25;8.60;99.90
6627;DHT22;3349;49.830;8.748;2022-10-03T06:19:18;8.80;99.90
6627;DHT22;3349;49.830;8.748;2022-10-03T06:28:33;9.20;99.90
6627;DHT22;3349;49.830;8.748;2022-10-03T06:37:27;9.60;99.90
6627;DHT22;3349;49.830;8.748;2022-10-03T06:40:34;9.60;99.90
6627;DHT22;3349;49.830;8.748;2022-10-03T06:43:42;9.70;99.90
6627;DHT22;3349;49.830;8.748;2022-10-03T06:46:26;9.90;99.90
6627;DHT22;3349;49.830;8.748;2022-10-03T06:49:29;10.00;99.90
6627;DHT22;3349;49.830;8.748;2022-10-03T06:52:34;10.10;99.90
6627;DHT22;3349;49.830;8.748;2022-10-03T07:04:34;10.30;99.90
6627;DHT22;3349;49.830;8.748;2022-10-03T07:10:19;10.40;99.90
6627;DHT22;3349;49.830;8.748;2022-10-03T07:13:09;10.50;99.90
6627;DHT22;3349;49.830;8.748;2022-10-03T07:15:47;10.60;99.90
6627;DHT22;3349;49.830;8.748;2022-10-03T07:18:48;10.60;99.90
6627;DHT22;3349;49.830;8.748;2022-10-03T07:27:24;11.00;99.90
6627;DHT22;3349;49.830;8.748;2022-10-03T07:30:08;11.00;99.90
6627;DHT22;3349;49.830;8.748;2022-10-03T07:32:56;11.10;99.90
6627;DHT22;3349;49.830;8.748;2022-10-03T07:35:42;11.10;99.90
6627;DHT22;3349;49.830;8.748;2022-10-03T07:41:39;11.20;99.90
6627;DHT22;3349;49.830;8.748;2022-10-03T07:44:41;11.20;99.90
6627;DHT22;3349;49.830;8.748;2022-10-03T07:50:49;11.20;99.90
6627;DHT22;3349;49.830;8.748;2022-10-03T07:59:46;11.30;99.90
6627;DHT22;3349;49.830;8.748;2022-10-03T08:05:47;11.40;99.90
6627;DHT22;3349;49.830;8.748;2022-10-03T08:08:36;11.40;99.90
6627;DHT22;3349;49.830;8.748;2022-10-03T08:11:36;11.50;99.90
6627;DHT22;3349;49.830;8.748;2022-10-03T08:14:16;11.70;99.90
6627;DHT22;3349;49.830;8.748;2022-10-03T08:20:11;11.70;99.90
6627;DHT22;3349;49.830;8.748;2022-10-03T08:22:54;11.80;99.90
6627;DHT22;3349;49.830;8.748;2022-10-03T08:25:28;12.00;99.90
6627;DHT22;3349;49.830;8.748;2022-10-03T08:28:17;12.30;99.90
6627;DHT22;3349;49.830;8.748;2022-10-03T08:31:10;12.50;92.90
6627;DHT22;3349;49.830;8.748;2022-10-03T08:33:59;12.50;67.90
6627;DHT22;3349;49.830;8.748;2022-10-03T08:36:58;12.70;51.30
6627;DHT22;3349;49.830;8.748;2022-10-03T08:39:45;12.80;32.60
6627;DHT22;3349;49.830;8.748;2022-10-03T08:45:51;13.00;23.90
6627;DHT22;3349;49.830;8.748;2022-10-03T08:48:47;13.10;21.60
6627;DHT22;3349;49.830;8.748;2022-10-03T08:57:42;12.90;15.00
6627;DHT22;3349;49.830;8.748;2022-10-03T09:00:15;13.00;13.60
6627;DHT22;3349;49.830;8.748;2022-10-03T09:06:22;13.00;8.60
6627;DHT22;3349;49.830;8.748;2022-10-03T09:09:15;12.90;7.40
6627;DHT22;3349;49.830;8.748;2022-10-03T09:12:02;12.90;10.60
6627;DHT22;3349;49.830;8.748;2022-10-03T09:15:05;13.00;8.00
6627;DHT22;3349;49.830;8.748;2022-10-03T09:18:07;12.90;6.70
6627;DHT22;3349;49.830;8.748;2022-10-03T09:20:55;13.00;8.70
6627;DHT22;3349;49.830;8.748;2022-10-03T09:24:12;13.10;5.30
6627;DHT22;3349;49.830;8.748;2022-10-03T09:27:16;13.20;4.20
6627;DHT22;3349;49.830;8.748;2022-10-03T09:30:07;13.40;1.00
6627;DHT22;3349;49.830;8.748;2022-10-03T09:33:15;13.60;1.20
6627;DHT22;3349;49.830;8.748;2022-10-03T09:38:47;14.30;1.00
6627;DHT22;3349;49.830;8.748;2022-10-03T09:41:33;14.80;1.00
6627;DHT22;3349;49.830;8.748;2022-10-03T09:48:11;15.80;1.00
6627;DHT22;3349;49.830;8.748;2022-10-03T09:51:18;16.80;1.00
6627;DHT22;3349;49.830;8.748;2022-10-03T09:54:17;16.70;1.00
6627;DHT22;3349;49.830;8.748;2022-10-03T09:57:18;16.90;1.00
6627;DHT22;3349;49.830;8.748;2022-10-03T10:00:19;17.50;1.00
6627;DHT22;3349;49.830;8.748;2022-10-03T10:06:09;16.90;1.00
6627;DHT22;3349;49.830;8.748;2022-10-03T10:09:03;17.10;1.00
6627;DHT22;3349;49.830;8.748;2022-10-03T10:12:00;17.60;1.00
6627;DHT22;3349;49.830;8.748;2022-10-03T10:14:54;18.00;1.00
6627;DHT22;3349;49.830;8.748;2022-10-03T10:21:11;19.00;1.00
6627;DHT22;3349;49.830;8.748;2022-10-03T10:23:53;19.80;1.00
6627;DHT22;3349;49.830;8.748;2022-10-03T10:26:47;20.00;1.00
6627;DHT22;3349;49.830;8.748;2022-10-03T10:29:30;20.10;1.00
6627;DHT22;3349;49.830;8.748;2022-10-03T10:32:59;19.70;1.00
6627;DHT22;3349;49.830;8.748;2022-10-03T10:39:04;18.30;2.10
6627;DHT22;3349;49.830;8.748;2022-10-03T10:42:13;17.30;1.00
6627;DHT22;3349;49.830;8.748;2022-10-03T10:51:20;18.10;1.00
6627;DHT22;3349;49.830;8.748;2022-10-03T10:57:25;23.10;1.00
6627;DHT22;3349;49.830;8.748;2022-10-03T11:00:13;24.20;1.00
6627;DHT22;3349;49.830;8.748;2022-10-03T11:13:02;22.20;1.00
6627;DHT22;3349;49.830;8.748;2022-10-03T11:16:14;20.80;1.00
6627;DHT22;3349;49.830;8.748;2022-10-03T11:19:18;20.20;1.00
6627;DHT22;3349;49.830;8.748;2022-10-03T11:31:32;17.80;1.00
6627;DHT22;3349;49.830;8.748;2022-10-03T11:37:19;17.10;1.00
6627;DHT22;3349;49.830;8.748;2022-10-03T11:39:55;16.90;1.00
6627;DHT22;3349;49.830;8.748;2022-10-03T11:42:34;16.70;1.00
6627;DHT22;3349;49.830;8.748;2022-10-03T11:45:19;16.90;1.00
6627;DHT22;3349;49.830;8.748;2022-10-03T11:47:58;17.30;1.00
6627;DHT22;3349;49.830;8.748;2022-10-03T11:50:47;18.50;1.00
6627;DHT22;3349;49.830;8.748;2022-10-03T11:53:35;19.30;1.00
6627;DHT22;3349;49.830;8.748;2022-10-03T11:59:08;19.80;1.00
6627;DHT22;3349;49.830;8.748;2022-10-03T12:01:51;19.60;1.00
6627;DHT22;3349;49.830;8.748;2022-10-03T12:04:27;19.50;1.00
6627;DHT22;3349;49.830;8.748;2022-10-03T12:07:01;18.90;1.00
6627;DHT22;3349;49.830;8.748;2022-10-03T12:10:03;18.60;1.00
6627;DHT22;3349;49.830;8.748;2022-10-03T12:12:39;18.20;1.00
6627;DHT22;3349;49.830;8.748;2022-10-03T12:15:23;18.00;1.00
6627;DHT22;3349;49.830;8.748;2022-10-03T12:18:03;17.60;1.00
6627;DHT22;3349;49.830;8.748;2022-10-03T12:20:41;17.30;1.00
6627;DHT22;3349;49.830;8.748;2022-10-03T12:23:24;17.10;1.00
6627;DHT22;3349;49.830;8.748;2022-10-03T12:25:56;16.90;1.00
6627;DHT22;3349;49.830;8.748;2022-10-03T12:28:31;16.70;1.00
6627;DHT22;3349;49.830;8.748;2022-10-03T12:31:09;16.60;1.00
6627;DHT22;3349;49.830;8.748;2022-10-03T12:33:49;16.50;1.00
6627;DHT22;3349;49.830;8.748;2022-10-03T12:36:18;16.40;1.00
6627;DHT22;3349;49.830;8.748;2022-10-03T12:39:15;16.40;2.90
6627;DHT22;3349;49.830;8.748;2022-10-03T12:41:56;16.60;1.00
6627;DHT22;3349;49.830;8.748;2022-10-03T12:44:39;16.90;2.70
6627;DHT22;3349;49.830;8.748;2022-10-03T12:47:23;16.80;1.10
6627;DHT22;3349;49.830;8.748;2022-10-03T12:49:56;16.70;5.70
6627;DHT22;3349;49.830;8.748;2022-10-03T12:52:28;16.80;3.50
6627;DHT22;3349;49.830;8.748;2022-10-03T12:55:09;16.60;1.00
6627;DHT22;3349;49.830;8.748;2022-10-03T12:58:02;16.40;1.00
6627;DHT22;3349;49.830;8.748;2022-10-03T13:00:38;16.20;1.10
6627;DHT22;3349;49.830;8.748;2022-10-03T13:03:19;16.20;1.00
6627;DHT22;3349;49.830;8.748;2022-10-03T13:05:59;16.30;1.00
6627;DHT22;3349;49.830;8.748;2022-10-03T13:08:42;16.20;3.20
6627;DHT22;3349;49.830;8.748;2022-10-03T13:11:23;16.40;2.60
6627;DHT22;3349;49.830;8.748;2022-10-03T13:14:05;16.30;1.20
6627;DHT22;3349;49.830;8.748;2022-10-03T13:16:41;16.30;3.80
6627;DHT22;3349;49.830;8.748;2022-10-03T13:19:13;16.20;3.50
6627;DHT22;3349;49.830;8.748;2022-10-03T13:21:55;16.20;1.00
6627;DHT22;3349;49.830;8.748;2022-10-03T13:24:31;16.10;1.00
6627;DHT22;3349;49.830;8.748;2022-10-03T13:27:23;16.30;1.00
6627;DHT22;3349;49.830;8.748;2022-10-03T13:29:58;16.10;1.00
6627;DHT22;3349;49.830;8.748;2022-10-03T13:32:32;16.30;1.00
6627;DHT22;3349;49.830;8.748;2022-10-03T13:35:04;16.50;1.00
6627;DHT22;3349;49.830;8.748;2022-10-03T13:38:15;16.40;1.00
6627;DHT22;3349;49.830;8.748;2022-10-03T13:40:45;16.60;1.00
6627;DHT22;3349;49.830;8.748;2022-10-03T13:43:18;16.50;1.00
6627;DHT22;3349;49.830;8.748;2022-10-03T13:45:50;16.40;1.00
6627;DHT22;3349;49.830;8.748;2022-10-03T13:48:22;16.40;1.00
6627;DHT22;3349;49.830;8.748;2022-10-03T13:50:55;16.30;1.00
6627;DHT22;3349;49.830;8.748;2022-10-03T13:53:42;16.20;1.00
6627;DHT22;3349;49.830;8.748;2022-10-03T13:56:18;16.20;1.00
6627;DHT22;3349;49.830;8.748;2022-10-03T13:58:54;16.10;1.00
6627;DHT22;3349;49.830;8.748;2022-10-03T14:01:41;16.10;1.00
6627;DHT22;3349;49.830;8.748;2022-10-03T14:04:34;16.20;1.00
6627;DHT22;3349;49.830;8.748;2022-10-03T14:07:09;16.10;1.00
6627;DHT22;3349;49.830;8.748;2022-10-03T14:12:45;16.10;1.00
6627;DHT22;3349;49.830;8.748;2022-10-03T14:15:32;16.10;1.00
6627;DHT22;3349;49.830;8.748;2022-10-03T14:18:16;16.00;1.00
6627;DHT22;3349;49.830;8.748;2022-10-03T14:21:19;15.70;1.00
6627;DHT22;3349;49.830;8.748;2022-10-03T14:23:51;15.60;1.00
6627;DHT22;3349;49.830;8.748;2022-10-03T14:26:26;15.50;1.00
6627;DHT22;3349;49.830;8.748;2022-10-03T14:29:01;15.40;1.00
6627;DHT22;3349;49.830;8.748;2022-10-03T14:31:34;15.30;1.00
6627;DHT22;3349;49.830;8.748;2022-10-03T14:34:09;15.20;1.00
6627;DHT22;3349;49.830;8.748;2022-10-03T14:36:44;15.10;1.00
6627;DHT22;3349;49.830;8.748;2022-10-03T14:39:23;15.00;1.00
6627;DHT22;3349;49.830;8.748;2022-10-03T14:42:18;15.00;1.00
6627;DHT22;3349;49.830;8.748;2022-10-03T14:44:53;15.00;1.00
6627;DHT22;3349;49.830;8.748;2022-10-03T14:47:21;14.90;1.00
6627;DHT22;3349;49.830;8.748;2022-10-03T14:49:51;15.00;4.60
6627;DHT22;3349;49.830;8.748;2022-10-03T14:52:25;15.00;1.00
6627;DHT22;3349;49.830;8.748;2022-10-03T14:54:55;15.10;1.00
6627;DHT22;3349;49.830;8.748;2022-10-03T14:57:30;15.10;4.20
6627;DHT22;3349;49.830;8.748;2022-10-03T14:59:58;15.20;4.10
6627;DHT22;3349;49.830;8.748;2022-10-03T15:02:28;15.20;1.00
6627;DHT22;3349;49.830;8.748;2022-10-03T15:05:00;15.10;1.00
6627;DHT22;3349;49.830;8.748;2022-10-03T15:07:35;15.10;1.00
6627;DHT22;3349;49.830;8.748;2022-10-03T15:10:08;15.10;1.00
6627;DHT22;3349;49.830;8.748;2022-10-03T15:12:40;15.10;1.00
6627;DHT22;3349;49.830;8.748;2022-10-03T15:15:13;15.10;1.00
6627;DHT22;3349;49.830;8.748;2022-10-03T15:17:45;15.00;1.00
6627;DHT22;3349;49.830;8.748;2022-10-03T15:20:15;15.00;1.00
6627;DHT22;3349;49.830;8.748;2022-10-03T15:22:48;15.00;1.00
6627;DHT22;3349;49.830;8.748;2022-10-03T15:25:20;15.00;1.00
6627;DHT22;3349;49.830;8.748;2022-10-03T15:27:51;15.00;1.00
6627;DHT22;3349;49.830;8.748;2022-10-03T15:30:20;15.10;1.00
6627;DHT22;3349;49.830;8.748;2022-10-03T15:32:48;15.10;1.00
6627;DHT22;3349;49.830;8.748;2022-10-03T15:35:18;15.20;1.00
6627;DHT22;3349;49.830;8.748;2022-10-03T15:37:48;15.20;1.00
6627;DHT22;3349;49.830;8.748;2022-10-03T15:40:21;15.20;1.00
6627;DHT22;3349;49.830;8.748;2022-10-03T15:43:04;15.30;1.00
6627;DHT22;3349;49.830;8.748;2022-10-03T15:45:33;15.40;1.00
6627;DHT22;3349;49.830;8.748;2022-10-03T15:48:03;15.50;1.00
6627;DHT22;3349;49.830;8.748;2022-10-03T15:50:35;15.60;1.00
6627;DHT22;3349;49.830;8.748;2022-10-03T15:53:07;15.60;1.00
6627;DHT22;3349;49.830;8.748;2022-10-03T15:55:38;15.60;1.00
6627;DHT22;3349;49.830;8.748;2022-10-03T15:58:14;15.70;1.00
6627;DHT22;3349;49.830;8.748;2022-10-03T16:00:46;15.60;1.00
6627;DHT22;3349;49.830;8.748;2022-10-03T16:03:16;15.90;1.00
6627;DHT22;3349;49.830;8.748;2022-10-03T16:05:52;16.10;1.00
6627;DHT22;3349;49.830;8.748;2022-10-03T16:08:25;16.30;1.00
6627;DHT22;3349;49.830;8.748;2022-10-03T16:11:01;16.50;1.00
6627;DHT22;3349;49.830;8.748;2022-10-03T16:13:36;16.60;1.00
6627;DHT22;3349;49.830;8.748;2022-10-03T16:16:12;16.60;1.00
6627;DHT22;3349;49.830;8.748;2022-10-03T16:19:17;16.70;1.00
6627;DHT22;3349;49.830;8.748;2022-10-03T16:21:46;16.50;1.00
6627;DHT22;3349;49.830;8.748;2022-10-03T16:24:23;16.40;1.00
6627;DHT22;3349;49.830;8.748;2022-10-03T16:26:54;16.10;1.00
6627;DHT22;3349;49.830;8.748;2022-10-03T16:29:26;16.00;1.00
6627;DHT22;3349;49.830;8.748;2022-10-03T16:31:56;15.70;1.00
6627;DHT22;3349;49.830;8.748;2022-10-03T16:34:26;15.40;1.00
6627;DHT22;3349;49.830;8.748;2022-10-03T16:36:55;15.00;1.00
6627;DHT22;3349;49.830;8.748;2022-10-03T16:39:25;14.80;1.00
6627;DHT22;3349;49.830;8.748;2022-10-03T16:41:53;14.50;1.50
6627;DHT22;3349;49.830;8.748;2022-10-03T16:44:26;14.20;3.60
6627;DHT22;3349;49.830;8.748;2022-10-03T16:46:56;14.00;15.60
6627;DHT22;3349;49.830;8.748;2022-10-03T16:49:36;13.70;24.80
6627;DHT22;3349;49.830;8.748;2022-10-03T16:52:24;13.50;19.20
6627;DHT22;3349;49.830;8.748;2022-10-03T16:54:58;13.30;22.50
6627;DHT22;3349;49.830;8.748;2022-10-03T16:57:31;13.10;20.30
6627;DHT22;3349;49.830;8.748;2022-10-03T17:00:03;12.90;21.90
6627;DHT22;3349;49.830;8.748;2022-10-03T17:02:36;12.80;24.80
6627;DHT22;3349;49.830;8.748;2022-10-03T17:05:06;12.70;33.20
6627;DHT22;3349;49.830;8.748;2022-10-03T17:07:39;12.50;27.40
6627;DHT22;3349;49.830;8.748;2022-10-03T17:10:24;12.40;38.20
6627;DHT22;3349;49.830;8.748;2022-10-03T17:12:55;12.20;45.50
6627;DHT22;3349;49.830;8.748;2022-10-03T17:15:29;12.10;50.60
6627;DHT22;3349;49.830;8.748;2022-10-03T17:18:06;12.10;51.40
6627;DHT22;3349;49.830;8.748;2022-10-03T17:20:40;12.10;57.10
6627;DHT22;3349;49.830;8.748;2022-10-03T17:23:29;12.10;51.70
6627;DHT22;3349;49.830;8.748;2022-10-03T17:26:02;12.00;76.20
6627;DHT22;3349;49.830;8.748;2022-10-03T17:28:37;11.90;83.30
6627;DHT22;3349;49.830;8.748;2022-10-03T17:31:17;11.80;80.70
6627;DHT22;3349;49.830;8.748;2022-10-03T17:33:49;11.70;80.50
6627;DHT22;3349;49.830;8.748;2022-10-03T17:36:44;11.70;84.70
6627;DHT22;3349;49.830;8.748;2022-10-03T17:39:28;11.60;80.20
6627;DHT22;3349;49.830;8.748;2022-10-03T17:41:59;11.50;80.40
6627;DHT22;3349;49.830;8.748;2022-10-03T17:44:34;11.50;87.60
6627;DHT22;3349;49.830;8.748;2022-10-03T17:47:08;11.40;84.60
6627;DHT22;3349;49.830;8.748;2022-10-03T17:49:44;11.30;81.40
6627;DHT22;3349;49.830;8.748;2022-10-03T17:52:17;11.20;80.50
6627;DHT22;3349;49.830;8.748;2022-10-03T17:54:47;11.00;88.30
6627;DHT22;3349;49.830;8.748;2022-10-03T17:57:21;11.00;86.70
6627;DHT22;3349;49.830;8.748;2022-10-03T17:59:56;10.90;93.30
6627;DHT22;3349;49.830;8.748;2022-10-03T18:02:33;10.80;85.60
6627;DHT22;3349;49.830;8.748;2022-10-03T18:05:07;10.70;81.30
6627;DHT22;3349;49.830;8.748;2022-10-03T18:07:38;10.60;83.10
6627;DHT22;3349;49.830;8.748;2022-10-03T18:10:17;10.60;88.40
6627;DHT22;3349;49.830;8.748;2022-10-03T18:12:46;10.40;89.10
6627;DHT22;3349;49.830;8.748;2022-10-03T18:15:40;10.40;90.20
6627;DHT22;3349;49.830;8.748;2022-10-03T18:21:54;10.20;99.90
6627;DHT22;3349;49.830;8.748;2022-10-03T18:24:44;10.20;98.60
6627;DHT22;3349;49.830;8.748;2022-10-03T18:27:35;10.20;99.90
6627;DHT22;3349;49.830;8.748;2022-10-03T18:30:14;10.10;98.40
6627;DHT22;3349;49.830;8.748;2022-10-03T18:32:42;10.10;99.90
6627;DHT22;3349;49.830;8.748;2022-10-03T18:35:14;10.00;99.90
6627;DHT22;3349;49.830;8.748;2022-10-03T18:38:04;10.00;99.80
6627;DHT22;3349;49.830;8.748;2022-10-03T18:40:35;9.90;97.30
6627;DHT22;3349;49.830;8.748;2022-10-03T18:43:28;9.90;99.90
6627;DHT22;3349;49.830;8.748;2022-10-03T18:46:13;9.80;99.90
6627;DHT22;3349;49.830;8.748;2022-10-03T18:48:45;9.70;99.90
6627;DHT22;3349;49.830;8.748;2022-10-03T18:51:20;9.70;99.90
6627;DHT22;3349;49.830;8.748;2022-10-03T18:53:55;9.60;99.90
6627;DHT22;3349;49.830;8.748;2022-10-03T18:56:25;9.50;99.90
6627;DHT22;3349;49.830;8.748;2022-10-03T19:01:49;9.50;99.90
6627;DHT22;3349;49.830;8.748;2022-10-03T19:04:29;9.50;99.90
6627;DHT22;3349;49.830;8.748;2022-10-03T19:06:59;9.50;99.90
6627;DHT22;3349;49.830;8.748;2022-10-03T19:09:33;9.40;99.90
6627;DHT22;3349;49.830;8.748;2022-10-03T19:12:07;9.30;99.90
6627;DHT22;3349;49.830;8.748;2022-10-03T19:14:43;9.30;99.90
6627;DHT22;3349;49.830;8.748;2022-10-03T19:17:24;9.20;99.90
6627;DHT22;3349;49.830;8.748;2022-10-03T19:19:57;9.20;99.90
6627;DHT22;3349;49.830;8.748;2022-10-03T19:22:29;9.10;99.90
6627;DHT22;3349;49.830;8.748;2022-10-03T19:25:00;9.00;99.90
6627;DHT22;3349;49.830;8.748;2022-10-03T19:27:39;9.10;99.90
6627;DHT22;3349;49.830;8.748;2022-10-03T19:30:08;9.10;99.90
6627;DHT22;3349;49.830;8.748;2022-10-03T19:32:48;9.10;99.90
6627;DHT22;3349;49.830;8.748;2022-10-03T19:35:18;9.10;99.90
6627;DHT22;3349;49.830;8.748;2022-10-03T19:37:48;9.00;99.90
6627;DHT22;3349;49.830;8.748;2022-10-03T19:40:40;9.00;99.90
6627;DHT22;3349;49.830;8.748;2022-10-03T19:43:35;8.90;99.90
6627;DHT22;3349;49.830;8.748;2022-10-03T19:49:25;8.90;99.90
6627;DHT22;3349;49.830;8.748;2022-10-03T19:52:10;8.90;99.90
6627;DHT22;3349;49.830;8.748;2022-10-03T19:54:44;8.80;99.90
6627;DHT22;3349;49.830;8.748;2022-10-03T19:57:15;8.80;99.90
6627;DHT22;3349;49.830;8.748;2022-10-03T19:59:45;8.80;99.90
6627;DHT22;3349;49.830;8.748;2022-10-03T20:02:14;8.80;99.90
6627;DHT22;3349;49.830;8.748;2022-10-03T20:04:40;8.80;99.90
6627;DHT22;3349;49.830;8.748;2022-10-03T20:07:13;8.80;99.90
6627;DHT22;3349;49.830;8.748;2022-10-03T20:09:53;8.70;99.20
6627;DHT22;3349;49.830;8.748;2022-10-03T20:12:24;8.70;99.90
6627;DHT22;3349;49.830;8.748;2022-10-03T20:14:52;8.60;99.90
6627;DHT22;3349;49.830;8.748;2022-10-03T20:17:21;8.60;99.90
6627;DHT22;3349;49.830;8.748;2022-10-03T20:19:50;8.60;99.90
6627;DHT22;3349;49.830;8.748;2022-10-03T20:22:21;8.50;99.90
6627;DHT22;3349;49.830;8.748;2022-10-03T20:24:50;8.50;99.90
6627;DHT22;3349;49.830;8.748;2022-10-03T20:27:27;8.40;99.90
6627;DHT22;3349;49.830;8.748;2022-10-03T20:30:04;8.40;99.90
6627;DHT22;3349;49.830;8.748;2022-10-03T20:32:34;8.40;99.90